Time;durP1;ratioP1;P1;durP2;ratioP2;P2;SDS_P1;SDS_P2;PMS_P1;PMS_P2;Temp;Humidity;BMP_temperature;BMP_pressure;BME280_temperature;BME280_humidity;BME280_pressure;Samples;Min_cycle;Max_cycle;Signal;HPM_P1;HPM_P2
2022/11/09 00:02:22;;;;;;;;;;;;;;;20.95;44.69;97307.38;5157981;27;19907;-31
2022/11/09 00:04:47;;;;;;;;;;;;;;;20.94;44.67;97303.09;5157865;27;19907;-29
2022/11/09 00:07:12;;;;;;;;;;;;;;;20.99;44.38;97301.69;5158171;27;19915;-30
2022/11/09 00:09:37;;;;;;;;;;;;;;;20.88;44.37;97298.72;5157985;27;20297;-29
2022/11/09 00:12:04;;;;;;;;;;;;;;;20.91;44.28;97312.31;5157726;27;20001;-29
2022/11/09 00:14:30;;;;;;;;;;;;;;;20.94;44.15;97307.84;5139372;27;20278;-30
2022/11/09 00:16:55;;;;;;;;;;;;;;;20.91;44.24;97301.28;5157787;27;19914;-30
2022/11/09 00:19:21;;;;;;;;;;;;;;;20.91;44.07;97298.53;5138908;27;19911;-30
2022/11/09 00:21:46;;;;;;;;;;;;;;;20.90;43.94;97308.03;5157490;27;19915;-30
2022/11/09 00:24:11;;;;;;;;;;;;;;;20.89;44.06;97301.03;5157581;27;19907;-30
2022/11/09 00:26:37;;;;;;;;;;;;;;;20.89;43.94;97308.53;5157777;27;19911;-31
2022/11/09 00:29:02;;;;;;;;;;;;;;;20.93;43.83;97300.81;5157441;27;19994;-30
2022/11/09 00:31:27;;;;;;;;;;;;;;;20.86;43.74;97301.19;5157440;27;19931;-30
2022/11/09 00:33:54;;;;;;;;;;;;;;;20.89;43.81;97298.25;5157533;27;20285;-30
2022/11/09 00:36:20;;;;;;;;;;;;;;;20.89;43.86;97292.75;5157242;27;19952;-30
2022/11/09 00:38:50;;;;;;;;;;;;;;;20.85;43.96;97297.69;5157309;27;19911;-30
2022/11/09 00:41:16;;;;;;;;;;;;;;;20.86;43.95;97287.41;5157414;27;19907;-30
2022/11/09 00:43:41;;;;;;;;;;;;;;;20.86;43.74;97295.69;5157174;27;19914;-31
2022/11/09 00:46:07;;;;;;;;;;;;;;;20.84;43.87;97296.16;5157143;27;20009;-30
2022/11/09 00:48:32;;;;;;;;;;;;;;;20.83;43.89;97293.88;5157268;27;19988;-30
2022/11/09 00:50:58;;;;;;;;;;;;;;;20.85;43.75;97302.44;5157194;27;20290;-30
2022/11/09 00:53:24;;;;;;;;;;;;;;;20.86;43.78;97293.69;5157152;27;19959;-29
2022/11/09 00:56:00;;;;;;;;;;;;;;;20.85;43.84;97300.44;5156647;27;20367;-30
2022/11/09 00:58:27;;;;;;;;;;;;;;;20.76;43.92;97295.78;5156945;27;19914;-31
2022/11/09 01:00:52;;;;;;;;;;;;;;;20.82;43.58;97295.84;5156638;27;19907;-29
2022/11/09 01:03:18;;;;;;;;;;;;;;;20.84;43.72;97293.41;5157116;27;19914;-29
2022/11/09 01:05:44;;;;;;;;;;;;;;;20.80;43.61;97290.06;5156752;27;19906;-30
2022/11/09 01:08:09;;;;;;;;;;;;;;;20.80;43.59;97293.56;5156811;27;19906;-30
2022/11/09 01:10:34;;;;;;;;;;;;;;;20.81;43.77;97288.81;5154766;27;20052;-31
2022/11/09 01:13:00;;;;;;;;;;;;;;;20.77;43.80;97286.25;5156789;27;20009;-30
2022/11/09 01:15:25;;;;;;;;;;;;;;;20.75;43.63;97274.19;5156509;27;19914;-30
2022/11/09 01:17:50;;;;;;;;;;;;;;;20.81;43.61;97280.56;5156597;27;19911;-30
2022/11/09 01:20:16;;;;;;;;;;;;;;;20.76;43.73;97281.22;5156160;27;19915;-29
2022/11/09 01:22:41;;;;;;;;;;;;;;;20.76;43.65;97286.75;5156514;27;19907;-32
2022/11/09 01:25:07;;;;;;;;;;;;;;;20.76;43.69;97275.72;5156495;27;19907;-29
2022/11/09 01:27:33;;;;;;;;;;;;;;;20.70;43.63;97283.09;5156320;27;19944;-29
2022/11/09 01:29:58;;;;;;;;;;;;;;;20.71;43.65;97268.84;5156290;27;19959;-30
2022/11/09 01:32:23;;;;;;;;;;;;;;;20.72;43.73;97272.38;5156479;27;20273;-30
2022/11/09 01:34:49;;;;;;;;;;;;;;;20.79;43.51;97277.50;5156193;27;19907;-30
2022/11/09 01:37:14;;;;;;;;;;;;;;;20.75;43.65;97276.94;5156107;27;19949;-30
2022/11/09 01:39:39;;;;;;;;;;;;;;;20.75;43.62;97272.19;5156181;27;20014;-32
2022/11/09 01:42:04;;;;;;;;;;;;;;;20.70;43.86;97274.84;5154060;27;20384;-31
2022/11/09 01:44:30;;;;;;;;;;;;;;;20.69;44.11;97271.31;5156117;27;19911;-30
2022/11/09 01:46:59;;;;;;;;;;;;;;;20.72;43.93;97270.38;5156225;27;20423;-29
2022/11/09 01:49:27;;;;;;;;;;;;;;;20.69;43.94;97268.56;5155859;27;19907;-30
2022/11/09 01:52:00;;;;;;;;;;;;;;;20.72;43.86;97277.88;5137432;27;20361;-31
2022/11/09 01:54:27;;;;;;;;;;;;;;;20.69;43.84;97268.56;5156196;27;20289;-30
2022/11/09 01:56:55;;;;;;;;;;;;;;;20.66;43.95;97265.97;5155732;27;19907;-29
2022/11/09 01:59:23;;;;;;;;;;;;;;;20.65;43.78;97262.47;5155955;27;20345;-30
2022/11/09 02:01:49;;;;;;;;;;;;;;;20.67;43.85;97262.00;5155801;27;19946;-30
2022/11/09 02:04:19;;;;;;;;;;;;;;;20.69;43.78;97260.28;5156208;27;19918;-29
2022/11/09 02:06:45;;;;;;;;;;;;;;;20.66;43.91;97260.47;5155787;27;19911;-30
2022/11/09 02:09:19;;;;;;;;;;;;;;;20.65;43.68;97256.94;5155634;27;19964;-29
2022/11/09 02:11:44;;;;;;;;;;;;;;;20.64;43.88;97254.69;5156074;27;19914;-29
2022/11/09 02:14:11;;;;;;;;;;;;;;;20.63;43.67;97250.41;5155617;27;19910;-29
2022/11/09 02:16:36;;;;;;;;;;;;;;;20.61;44.00;97252.88;5155690;27;19914;-30
2022/11/09 02:19:01;;;;;;;;;;;;;;;20.61;43.93;97250.13;5155475;27;19911;-29
2022/11/09 02:21:28;;;;;;;;;;;;;;;20.60;44.13;97246.59;5154961;27;19915;-29
2022/11/09 02:23:54;;;;;;;;;;;;;;;20.55;44.09;97246.50;5155454;27;19915;-29
2022/11/09 02:26:29;;;;;;;;;;;;;;;20.59;43.91;97245.09;5155369;27;19910;-30
2022/11/09 02:28:55;;;;;;;;;;;;;;;20.62;43.80;97257.16;5155423;27;19918;-30
2022/11/09 02:31:21;;;;;;;;;;;;;;;20.63;43.88;97247.66;5155702;27;19914;-30
2022/11/09 02:33:50;;;;;;;;;;;;;;;20.57;44.08;97246.78;5155553;27;20346;-29
2022/11/09 02:36:16;;;;;;;;;;;;;;;20.61;43.90;97247.38;5155301;27;19907;-30
2022/11/09 02:38:41;;;;;;;;;;;;;;;20.61;44.07;97250.13;5155706;27;20261;-30
2022/11/09 02:41:06;;;;;;;;;;;;;;;20.62;43.88;97248.88;5155503;27;19913;-29
2022/11/09 02:43:33;;;;;;;;;;;;;;;20.58;43.84;97249.06;5155329;27;19915;-30
2022/11/09 02:45:59;;;;;;;;;;;;;;;20.59;43.97;97244.31;5155358;27;19911;-31
2022/11/09 02:48:24;;;;;;;;;;;;;;;20.59;43.92;97249.81;5155249;27;19906;-30
2022/11/09 02:50:49;;;;;;;;;;;;;;;20.61;43.99;97247.38;5155301;27;19918;-31
2022/11/09 02:53:14;;;;;;;;;;;;;;;20.59;44.09;97255.34;5155522;27;19907;-29
2022/11/09 02:55:40;;;;;;;;;;;;;;;20.54;43.96;97248.47;5155425;27;19950;-31
2022/11/09 02:58:05;;;;;;;;;;;;;;;20.54;44.08;97247.72;5155206;27;19959;-29
2022/11/09 03:00:30;;;;;;;;;;;;;;;20.51;44.22;97243.16;5155066;27;19911;-30
2022/11/09 03:02:56;;;;;;;;;;;;;;;20.53;44.03;97246.94;5155222;27;19964;-31
2022/11/09 03:05:27;;;;;;;;;;;;;;;20.51;44.04;97243.94;5155207;27;19951;-29
2022/11/09 03:07:52;;;;;;;;;;;;;;;20.54;43.65;97250.47;5154907;27;19911;-29
2022/11/09 03:10:17;;;;;;;;;;;;;;;20.56;43.54;97245.25;5155154;27;20277;-30
2022/11/09 03:12:43;;;;;;;;;;;;;;;20.51;43.80;97245.94;5155072;27;20263;-29
2022/11/09 03:15:08;;;;;;;;;;;;;;;20.46;43.83;97244.59;5155072;27;19907;-29
2022/11/09 03:17:34;;;;;;;;;;;;;;;20.50;43.74;97245.16;5136322;27;20353;-29
2022/11/09 03:19:59;;;;;;;;;;;;;;;20.45;43.90;97245.81;5154817;27;19914;-30
2022/11/09 03:22:24;;;;;;;;;;;;;;;20.46;43.86;97244.59;5155042;27;19907;-29
2022/11/09 03:24:50;;;;;;;;;;;;;;;20.51;43.66;97243.16;5155207;27;20401;-29
2022/11/09 03:27:15;;;;;;;;;;;;;;;20.50;43.91;97247.91;5154998;27;19911;-30
2022/11/09 03:29:40;;;;;;;;;;;;;;;20.45;43.95;97251.31;5154881;27;19911;-30
2022/11/09 03:32:06;;;;;;;;;;;;;;;20.53;43.69;97248.94;5154862;27;19957;-30
2022/11/09 03:34:31;;;;;;;;;;;;;;;20.51;43.66;97254.19;5156459;27;19914;-32
2022/11/09 03:36:56;;;;;;;;;;;;;;;20.47;43.69;97248.09;5158610;27;19914;-30
2022/11/09 03:39:22;;;;;;;;;;;;;;;20.41;43.60;97251.50;5158468;27;19911;-29
2022/11/09 03:41:48;;;;;;;;;;;;;;;20.46;43.36;97243.81;5158352;27;19914;-30
2022/11/09 03:44:13;;;;;;;;;;;;;;;20.48;43.35;97247.63;5157856;27;20363;-30
2022/11/09 03:46:38;;;;;;;;;;;;;;;20.43;43.60;97253.78;5155761;27;19911;-33
2022/11/09 03:49:03;;;;;;;;;;;;;;;20.39;43.67;97250.47;5158231;27;19914;-30
2022/11/09 03:51:29;;;;;;;;;;;;;;;20.44;43.64;97241.53;5158233;27;19907;-31
2022/11/09 03:53:54;;;;;;;;;;;;;;;20.44;43.74;97244.28;5158114;27;19910;-30
2022/11/09 03:56:19;;;;;;;;;;;;;;;20.42;43.51;97253.03;5158182;27;19959;-33
2022/11/09 03:58:45;;;;;;;;;;;;;;;20.34;43.59;97249.09;5158160;27;19958;-30
2022/11/09 04:01:10;;;;;;;;;;;;;;;20.39;43.71;97242.97;5158004;27;19910;-30
2022/11/09 04:03:36;;;;;;;;;;;;;;;20.48;43.39;97252.38;5157824;27;19914;-30
2022/11/09 04:06:01;;;;;;;;;;;;;;;20.39;43.55;97256.75;5158030;27;19922;-30
2022/11/09 04:08:26;;;;;;;;;;;;;;;20.38;43.67;97252.47;5157943;27;19907;-31
2022/11/09 04:10:52;;;;;;;;;;;;;;;20.43;43.68;97248.28;5157730;27;20366;-29
2022/11/09 04:13:17;;;;;;;;;;;;;;;20.42;43.36;97257.78;5157775;27;19921;-30
2022/11/09 04:15:42;;;;;;;;;;;;;;;20.42;43.64;97252.25;5157717;27;19986;-29
2022/11/09 04:18:10;;;;;;;;;;;;;;;20.44;43.25;97249.78;5157785;27;20005;-30
2022/11/09 04:20:35;;;;;;;;;;;;;;;20.38;43.39;97255.22;5157465;27;19997;-29
2022/11/09 04:23:02;;;;;;;;;;;;;;;20.39;43.41;97259.50;5157579;27;19961;-30
2022/11/09 04:25:30;;;;;;;;;;;;;;;20.40;43.45;97249.97;5157694;27;19990;-30
2022/11/09 04:27:56;;;;;;;;;;;;;;;20.39;43.16;97256.75;5157512;27;20010;-30
2022/11/09 04:30:21;;;;;;;;;;;;;;;20.39;43.16;97253.97;5157434;27;19946;-30
2022/11/09 04:32:47;;;;;;;;;;;;;;;20.35;43.34;97258.91;5157823;27;19907;-30
2022/11/09 04:35:12;;;;;;;;;;;;;;;20.34;43.51;97251.06;5157863;27;20262;-30
2022/11/09 04:37:37;;;;;;;;;;;;;;;20.34;43.29;97256.59;5157446;27;19914;-30
2022/11/09 04:40:03;;;;;;;;;;;;;;;20.35;43.36;97247.88;5157423;27;19907;-32
2022/11/09 04:42:28;;;;;;;;;;;;;;;20.40;43.46;97261.00;5157286;27;19907;-30
2022/11/09 04:44:53;;;;;;;;;;;;;;;20.30;43.51;97262.28;5156851;27;19952;-29
2022/11/09 04:47:19;;;;;;;;;;;;;;;20.34;43.41;97249.09;5157141;27;19918;-30
2022/11/09 04:49:44;;;;;;;;;;;;;;;20.37;43.37;97261.97;5157226;27;19914;-30
2022/11/09 04:52:09;;;;;;;;;;;;;;;20.37;43.29;97256.44;5157005;27;20354;-29
2022/11/09 04:54:35;;;;;;;;;;;;;;;20.37;43.11;97259.19;5157079;27;20014;-30
2022/11/09 04:57:00;;;;;;;;;;;;;;;20.35;43.41;97247.09;5156967;27;19917;-31
2022/11/09 04:59:25;;;;;;;;;;;;;;;20.35;43.24;97247.88;5156991;27;20355;-31
2022/11/09 05:01:50;;;;;;;;;;;;;;;20.31;43.39;97252.78;5156748;27;19914;-29
2022/11/09 05:04:16;;;;;;;;;;;;;;;20.35;43.04;97250.63;5156803;27;19914;-29
2022/11/09 05:06:41;;;;;;;;;;;;;;;20.33;43.39;97250.31;5156587;27;19917;-31
2022/11/09 05:09:06;;;;;;;;;;;;;;;20.31;43.34;97258.28;5156702;27;19913;-30
2022/11/09 05:11:32;;;;;;;;;;;;;;;20.35;43.28;97250.63;5156641;27;19968;-29
2022/11/09 05:13:58;;;;;;;;;;;;;;;20.28;43.35;97250.19;5156642;27;19906;-30
2022/11/09 05:16:23;;;;;;;;;;;;;;;20.30;43.31;97254.00;5156784;27;19959;-31
2022/11/09 05:18:49;;;;;;;;;;;;;;;20.37;43.31;97247.41;5156477;27;19907;-30
2022/11/09 05:21:14;;;;;;;;;;;;;;;20.36;43.36;97254.91;5156317;27;19963;-29
2022/11/09 05:23:57;;;;;;;;;;;;;;;20.34;43.32;97260.09;5156663;27;19907;-29
2022/11/09 05:26:23;;;;;;;;;;;;;;;20.34;43.24;97257.34;5156377;27;19966;-29
2022/11/09 05:28:49;;;;;;;;;;;;;;;20.34;43.24;97256.59;5156462;27;20001;-30
2022/11/09 05:31:14;;;;;;;;;;;;;;;20.28;43.15;97255.69;5155421;27;20377;-31
2022/11/09 05:33:39;;;;;;;;;;;;;;;20.33;42.87;97266.09;5156188;27;19907;-29
2022/11/09 05:36:05;;;;;;;;;;;;;;;20.31;43.07;97274.81;5156249;27;19914;-29
2022/11/09 05:38:30;;;;;;;;;;;;;;;20.28;42.95;97259.22;5156321;27;19997;-29
2022/11/09 05:40:56;;;;;;;;;;;;;;;20.31;43.19;97263.78;5156025;27;19930;-29
2022/11/09 05:43:21;;;;;;;;;;;;;;;20.28;43.23;97259.22;5156156;27;20271;-30
2022/11/09 05:45:46;;;;;;;;;;;;;;;20.25;43.30;97268.44;5155824;27;20359;-31
2022/11/09 05:48:13;;;;;;;;;;;;;;;20.27;43.24;97268.75;5156134;27;19907;-30
2022/11/09 05:50:40;;;;;;;;;;;;;;;20.28;43.35;97263.97;5155387;27;20431;-29
2022/11/09 05:53:05;;;;;;;;;;;;;;;20.24;43.41;97260.66;5153564;27;19989;-31
2022/11/09 05:55:31;;;;;;;;;;;;;;;20.23;43.40;97259.88;5155388;27;20408;-29
2022/11/09 05:57:56;;;;;;;;;;;;;;;20.26;43.32;97263.69;5155482;27;20358;-29
2022/11/09 06:00:22;;;;;;;;;;;;;;;20.16;43.46;97265.72;5155765;27;19907;-29
2022/11/09 06:02:47;;;;;;;;;;;;;;;20.22;43.50;97261.13;5155889;27;20049;-29
2022/11/09 06:05:12;;;;;;;;;;;;;;;20.25;43.50;97268.44;5155730;27;19914;-29
2022/11/09 06:07:37;;;;;;;;;;;;;;;20.27;43.29;97267.97;5155576;27;19922;-31
2022/11/09 06:10:03;;;;;;;;;;;;;;;20.24;43.42;97272.44;5155737;27;19907;-29
2022/11/09 06:12:29;;;;;;;;;;;;;;;20.27;43.35;97266.00;5155675;27;19907;-30
2022/11/09 06:14:54;;;;;;;;;;;;;;;20.25;43.40;97275.94;5155855;27;19938;-30
2022/11/09 06:17:20;;;;;;;;;;;;;;;20.23;43.44;97275.66;5155621;27;19907;-30
2022/11/09 06:19:45;;;;;;;;;;;;;;;20.21;43.49;97276.13;5155812;27;20279;-29
2022/11/09 06:22:11;;;;;;;;;;;;;;;20.25;43.40;97279.47;5155577;27;20368;-29
2022/11/09 06:24:36;;;;;;;;;;;;;;;20.22;43.57;97271.38;5155578;27;20397;-29
2022/11/09 06:27:02;;;;;;;;;;;;;;;20.27;43.45;97279.75;5141560;27;20370;-30
2022/11/09 06:29:27;;;;;;;;;;;;;;;20.25;43.44;97275.94;5128109;27;19915;-29
2022/11/09 06:31:52;;;;;;;;;;;;;;;20.22;43.66;97279.63;5127710;27;19925;-30
2022/11/09 06:34:18;;;;;;;;;;;;;;;20.25;43.42;97279.47;5128169;27;20379;-31
2022/11/09 06:36:43;;;;;;;;;;;;;;;20.25;43.61;97282.22;5128853;27;20282;-30
2022/11/09 06:39:08;;;;;;;;;;;;;;;20.27;43.66;97290.78;5123339;27;20309;-30
2022/11/09 06:41:34;;;;;;;;;;;;;;;20.25;43.69;97297.97;5124639;27;19925;-31
2022/11/09 06:43:59;;;;;;;;;;;;;;;20.33;43.62;97299.13;5128518;27;20366;-32
2022/11/09 06:46:24;;;;;;;;;;;;;;;20.29;43.62;97290.28;5131764;27;19915;-30
2022/11/09 06:48:50;;;;;;;;;;;;;;;20.23;43.88;97287.44;5134656;27;19976;-30
2022/11/09 06:51:15;;;;;;;;;;;;;;;20.26;43.74;97303.03;5134497;27;20304;-30
2022/11/09 06:53:40;;;;;;;;;;;;;;;20.27;43.78;97304.56;5134618;27;19972;-30
2022/11/09 06:56:06;;;;;;;;;;;;;;;20.30;43.70;97295.31;5134562;27;19998;-30
2022/11/09 06:58:32;;;;;;;;;;;;;;;20.19;44.01;97299.84;5134421;28;20002;-30
2022/11/09 07:00:57;;;;;;;;;;;;;;;20.23;44.10;97312.22;5134336;28;19998;-30
2022/11/09 07:03:23;;;;;;;;;;;;;;;20.22;43.96;97305.19;5134646;28;19918;-30
2022/11/09 07:05:49;;;;;;;;;;;;;;;20.27;44.05;97306.53;5134637;28;19907;-32
2022/11/09 07:08:15;;;;;;;;;;;;;;;20.22;44.15;97313.44;5136570;27;19907;-30
2022/11/09 07:10:40;;;;;;;;;;;;;;;20.27;43.99;97315.56;5138235;27;20324;-30
2022/11/09 07:13:06;;;;;;;;;;;;;;;20.26;44.06;97316.81;5138426;27;19907;-30
2022/11/09 07:15:32;;;;;;;;;;;;;;;20.21;44.28;97313.91;5138256;27;19907;-30
2022/11/09 07:17:58;;;;;;;;;;;;;;;20.22;44.27;97305.19;5138316;27;19907;-31
2022/11/09 07:20:24;;;;;;;;;;;;;;;20.23;44.10;97312.22;5137955;27;19915;-30
2022/11/09 07:22:49;;;;;;;;;;;;;;;20.29;44.20;97315.84;5138007;27;20276;-33
2022/11/09 07:25:14;;;;;;;;;;;;;;;20.23;44.32;97328.75;5142591;27;19915;-30
2022/11/09 07:27:40;;;;;;;;;;;;;;;20.28;44.24;97314.31;5158571;27;20347;-30
2022/11/09 07:30:06;;;;;;;;;;;;;;;20.23;44.40;97316.97;5158809;27;19911;-30
2022/11/09 07:32:32;;;;;;;;;;;;;;;20.26;44.39;97314.03;5158554;27;19911;-30
2022/11/09 07:34:57;;;;;;;;;;;;;;;20.25;44.41;97318.03;5158698;27;19907;-30
2022/11/09 07:37:22;;;;;;;;;;;;;;;20.23;44.48;97320.47;5158736;27;19964;-30
2022/11/09 07:39:48;;;;;;;;;;;;;;;20.25;44.41;97314.50;5158413;27;20379;-30
2022/11/09 07:42:13;;;;;;;;;;;;;;;20.27;44.37;97323.84;5158426;27;19907;-30
2022/11/09 07:44:38;;;;;;;;;;;;;;;20.17;44.72;97325.09;5158487;27;19960;-30
2022/11/09 07:47:03;;;;;;;;;;;;;;;20.22;44.63;97318.19;5158007;27;20255;-30
2022/11/09 07:49:29;;;;;;;;;;;;;;;20.25;44.66;97315.28;5158345;27;19907;-32
2022/11/09 07:51:54;;;;;;;;;;;;;;;20.22;44.68;97307.94;5158245;27;19946;-30
2022/11/09 07:54:19;;;;;;;;;;;;;;;20.21;44.85;97311.16;5148385;27;19970;-30
2022/11/09 07:56:45;;;;;;;;;;;;;;;20.19;44.95;97319.13;5138756;27;19922;-32
2022/11/09 07:59:10;;;;;;;;;;;;;;;20.22;44.98;97323.69;5138742;27;19915;-30
2022/11/09 08:01:35;;;;;;;;;;;;;;;20.27;44.80;97321.06;5156214;27;19953;-31
2022/11/09 08:04:01;;;;;;;;;;;;;;;20.26;44.81;97316.81;5156144;27;19915;-31
2022/11/09 08:06:26;;;;;;;;;;;;;;;20.22;44.99;97316.19;5155714;27;19917;-30
2022/11/09 08:08:55;;;;;;;;;;;;;;;20.21;45.20;97316.66;5155965;27;20289;-30
2022/11/09 08:11:21;;;;;;;;;;;;;;;20.20;45.17;97309.63;5153824;27;20107;-30
2022/11/09 08:13:46;;;;;;;;;;;;;;;20.20;45.28;97307.66;5155569;27;19990;-30
2022/11/09 08:16:11;;;;;;;;;;;;;;;20.24;45.15;97319.25;5155548;27;20396;-30
2022/11/09 08:18:36;;;;;;;;;;;;;;;19.09;49.84;97316.03;5154288;27;19911;-29
2022/11/09 08:21:03;;;;;;;;;;;;;;;19.43;48.72;97326.63;5154650;27;20387;-29
2022/11/09 08:23:28;;;;;;;;;;;;;;;19.69;48.17;97325.03;5155088;27;19954;-28
2022/11/09 08:25:54;;;;;;;;;;;;;;;19.82;47.78;97322.06;5155419;27;19957;-30
2022/11/09 08:28:19;;;;;;;;;;;;;;;19.99;47.15;97325.97;5155615;27;19907;-29
2022/11/09 08:30:45;;;;;;;;;;;;;;;20.16;46.53;97328.31;5154968;27;19963;-28
2022/11/09 08:33:11;;;;;;;;;;;;;;;20.19;46.41;97325.41;5155287;27;19979;-29
2022/11/09 08:35:36;;;;;;;;;;;;;;;20.18;46.31;97331.38;5136864;27;19917;-29
2022/11/09 08:38:03;;;;;;;;;;;;;;;20.17;46.10;97336.13;5136723;27;19908;-30
2022/11/09 08:40:29;;;;;;;;;;;;;;;20.16;46.06;97334.59;5136557;27;20364;-28
2022/11/09 08:42:54;;;;;;;;;;;;;;;20.12;46.11;97328.50;5136391;27;20023;-29
2022/11/09 08:45:20;;;;;;;;;;;;;;;20.16;46.27;97331.84;5136602;27;19907;-29
2022/11/09 08:47:45;;;;;;;;;;;;;;;20.12;46.19;97331.25;5136415;27;19946;-29
2022/11/09 08:50:12;;;;;;;;;;;;;;;20.16;46.00;97331.06;5136751;27;19918;-29
2022/11/09 08:52:38;;;;;;;;;;;;;;;20.18;46.09;97318.34;5136102;27;19908;-29
2022/11/09 08:55:03;;;;;;;;;;;;;;;20.17;45.85;97327.84;5136157;27;20011;-30
2022/11/09 08:57:29;;;;;;;;;;;;;;;20.12;46.22;97331.25;5135686;27;19911;-30
2022/11/09 08:59:54;;;;;;;;;;;;;;;20.17;46.21;97327.84;5135507;27;20278;-29
2022/11/09 09:02:20;;;;;;;;;;;;;;;20.20;46.25;97313.16;5136273;27;19907;-30
2022/11/09 09:04:45;;;;;;;;;;;;;;;20.13;46.06;97321.00;5136098;27;19908;-29
2022/11/09 09:07:11;;;;;;;;;;;;;;;20.18;46.37;97318.34;5135910;27;19969;-29
2022/11/09 09:09:39;;;;;;;;;;;;;;;20.06;46.71;97313.84;5135996;27;19907;-29
2022/11/09 09:12:06;;;;;;;;;;;;;;;19.99;46.87;97314.97;5135924;27;19958;-29
2022/11/09 09:14:31;;;;;;;;;;;;;;;20.07;46.72;97313.38;5136186;27;19933;-28
2022/11/09 09:16:56;;;;;;;;;;;;;;;20.16;46.45;97317.31;5135798;27;19907;-29
2022/11/09 09:19:22;;;;;;;;;;;;;;;20.08;46.54;97322.41;5136210;27;19916;-29
2022/11/09 09:21:47;;;;;;;;;;;;;;;20.11;46.70;97321.47;5136721;27;19922;-29
2022/11/09 09:24:12;;;;;;;;;;;;;;;20.11;46.79;97315.97;5156245;27;19930;-29
2022/11/09 09:26:38;;;;;;;;;;;;;;;20.22;46.48;97307.94;5156363;27;19911;-29
2022/11/09 09:29:03;;;;;;;;;;;;;;;20.14;46.76;97315.03;5156438;27;19911;-29
2022/11/09 09:31:28;;;;;;;;;;;;;;;20.21;46.54;97314.69;5156199;27;19907;-29
2022/11/09 09:33:53;;;;;;;;;;;;;;;20.05;46.74;97315.84;5156262;27;19907;-29
2022/11/09 09:36:20;;;;;;;;;;;;;;;20.24;46.62;97308.22;5156999;27;19961;-29
2022/11/09 09:38:48;;;;;;;;;;;;;;;20.20;46.52;97315.91;5155901;27;19932;-30
2022/11/09 09:41:37;;;;;;;;;;;;;;;20.11;47.05;97309.69;5156438;27;19910;-29
2022/11/09 09:44:11;;;;;;;;;;;;;;;20.18;46.89;97317.59;5145184;27;19907;-29
2022/11/09 09:46:44;;;;;;;;;;;;;;;20.20;46.76;97317.91;5156180;27;20021;-29
2022/11/09 09:49:16;;;;;;;;;;;;;;;20.15;46.86;97324.81;5155956;27;19985;-29
2022/11/09 09:51:45;;;;;;;;;;;;;;;20.14;47.09;97326.06;5156040;27;20350;-28
2022/11/09 09:54:13;;;;;;;;;;;;;;;20.20;46.83;97324.16;5155911;27;19911;-29
2022/11/09 09:56:40;;;;;;;;;;;;;;;20.27;46.74;97323.06;5155857;27;19906;-29
2022/11/09 09:59:09;;;;;;;;;;;;;;;20.21;46.92;97331.19;5152573;27;19907;-29
2022/11/09 10:01:38;;;;;;;;;;;;;;;20.08;47.09;97336.16;5137533;27;19907;-30
2022/11/09 10:04:14;;;;;;;;;;;;;;;20.18;46.80;97329.38;5155805;27;19907;-29
2022/11/09 10:06:57;;;;;;;;;;;;;;;20.12;47.27;97328.50;5155904;27;19970;-30
2022/11/09 10:09:51;;;;;;;;;;;;;;;20.18;47.00;97326.63;5156020;27;19911;-29
2022/11/09 10:12:19;;;;;;;;;;;;;;;19.99;47.25;97327.97;5155743;27;19914;-31
2022/11/09 10:14:47;;;;;;;;;;;;;;;20.14;47.17;97326.06;5155721;27;19907;-29
2022/11/09 10:17:19;;;;;;;;;;;;;;;20.09;47.05;97332.94;5155694;27;19914;-29
2022/11/09 10:19:47;;;;;;;;;;;;;;;20.11;47.25;97323.47;5155633;27;19951;-28
2022/11/09 10:22:31;;;;;;;;;;;;;;;20.24;46.83;97313.75;5155474;27;20320;-29
2022/11/09 10:25:03;;;;;;;;;;;;;;;20.26;46.72;97319.56;5155744;27;19923;-29
2022/11/09 10:27:35;;;;;;;;;;;;;;;20.18;47.04;97304.59;5155448;27;20296;-28
2022/11/09 10:30:01;;;;;;;;;;;;;;;20.17;46.90;97305.06;5155695;27;20087;-29
2022/11/09 10:32:29;;;;;;;;;;;;;;;20.24;47.05;97308.22;5154371;27;20038;-28
2022/11/09 10:34:59;;;;;;;;;;;;;;;20.11;47.15;97310.47;5153266;27;20359;-29
2022/11/09 10:37:31;;;;;;;;;;;;;;;20.18;47.09;97310.09;5154447;27;19907;-29
2022/11/09 10:40:02;;;;;;;;;;;;;;;20.23;46.97;97303.19;5155684;27;19932;-29
2022/11/09 10:42:28;;;;;;;;;;;;;;;20.24;47.14;97312.97;5156119;27;19939;-28
2022/11/09 10:44:53;;;;;;;;;;;;;;;20.23;47.00;97303.97;5159715;27;19907;-29
2022/11/09 10:47:18;;;;;;;;;;;;;;;20.27;46.96;97301.03;5159443;27;19911;-30
2022/11/09 10:49:43;;;;;;;;;;;;;;;20.18;47.49;97298.31;5159544;27;19907;-29
2022/11/09 10:52:29;;;;;;;;;;;;;;;20.10;47.43;97297.91;5159527;27;19944;-29
2022/11/09 10:55:14;;;;;;;;;;;;;;;20.02;47.69;97299.50;5158732;27;19942;-28
2022/11/09 10:57:49;;;;;;;;;;;;;;;20.10;47.43;97297.91;5159589;27;19911;-29
2022/11/09 11:00:16;;;;;;;;;;;;;;;20.11;47.43;97296.69;5159467;27;19907;-29
2022/11/09 11:02:42;;;;;;;;;;;;;;;20.09;47.62;97293.63;5159202;27;19911;-29
2022/11/09 11:05:08;;;;;;;;;;;;;;;20.07;47.73;97294.09;5159276;27;19914;-29
2022/11/09 11:07:34;;;;;;;;;;;;;;;19.94;49.17;97301.06;5158943;27;19911;-29
2022/11/09 11:10:14;;;;;;;;;;;;;;;20.03;47.99;97287.25;5159099;27;20393;-29
2022/11/09 11:12:44;;;;;;;;;;;;;;;20.08;47.64;97281.09;5159005;27;19911;-29
2022/11/09 11:15:29;;;;;;;;;;;;;;;20.20;47.51;97288.38;5159219;27;19907;-29
2022/11/09 11:18:03;;;;;;;;;;;;;;;20.04;47.96;97288.75;5144675;27;19914;-28
2022/11/09 11:20:33;;;;;;;;;;;;;;;20.14;47.48;97284.75;5158977;27;19922;-28
2022/11/09 11:23:25;;;;;;;;;;;;;;;20.23;47.40;97284.69;5158876;27;19907;-29
2022/11/09 11:25:53;;;;;;;;;;;;;;;20.06;47.82;97294.56;5154039;27;19911;-29
2022/11/09 11:28:25;;;;;;;;;;;;;;;20.16;47.53;97282.25;5158653;27;19956;-29
2022/11/09 11:30:51;;;;;;;;;;;;;;;20.11;47.60;97277.41;5158708;27;19914;-29
2022/11/09 11:33:17;;;;;;;;;;;;;;;20.26;47.20;97282.97;5158202;27;19907;-29
2022/11/09 11:35:54;;;;;;;;;;;;;;;20.06;47.66;97283.56;5158533;27;19985;-29
2022/11/09 11:38:32;;;;;;;;;;;;;;;20.19;47.48;97273.06;5158630;27;19907;-29
2022/11/09 11:41:09;;;;;;;;;;;;;;;20.20;47.43;97266.31;5158734;27;19959;-29
2022/11/09 11:43:34;;;;;;;;;;;;;;;20.24;47.31;97263.41;5158754;27;19907;-29
2022/11/09 11:46:18;;;;;;;;;;;;;;;20.30;47.21;97267.00;5158337;27;19930;-29
2022/11/09 11:48:43;;;;;;;;;;;;;;;20.19;47.43;97259.28;5158350;27;19951;-29
2022/11/09 11:51:12;;;;;;;;;;;;;;;20.19;47.64;97262.06;5158334;27;19911;-29
2022/11/09 11:53:45;;;;;;;;;;;;;;;20.09;47.99;97253.09;5157652;27;20055;-29
2022/11/09 11:56:14;;;;;;;;;;;;;;;20.18;47.65;97244.00;5139238;27;19918;-29
2022/11/09 11:58:49;;;;;;;;;;;;;;;20.10;48.37;97253.84;5157105;27;19907;-29
2022/11/09 12:01:41;;;;;;;;;;;;;;;20.10;48.21;97245.59;5156875;27;20003;-29
2022/11/09 12:04:06;;;;;;;;;;;;;;;20.21;47.48;97248.56;5126232;27;19914;-29
2022/11/09 12:06:47;;;;;;;;;;;;;;;20.24;47.65;97238.63;5157991;27;19911;-30
2022/11/09 12:09:30;;;;;;;;;;;;;;;20.20;47.80;97241.53;5157913;27;20358;-29
2022/11/09 12:11:56;;;;;;;;;;;;;;;20.28;47.40;97237.19;5157838;27;19906;-28
2022/11/09 12:14:38;;;;;;;;;;;;;;;20.29;47.56;97232.44;5157844;27;19934;-29
2022/11/09 12:17:11;;;;;;;;;;;;;;;20.39;47.20;97236.69;5157765;27;19914;-28
2022/11/09 12:19:37;;;;;;;;;;;;;;;20.31;47.51;97241.75;5157789;27;19914;-28
2022/11/09 12:22:02;;;;;;;;;;;;;;;20.20;48.05;97241.53;5157521;27;19915;-30
2022/11/09 12:24:33;;;;;;;;;;;;;;;19.94;48.33;97224.75;5157704;27;19907;-29
2022/11/09 12:27:16;;;;;;;;;;;;;;;20.20;47.74;97219.50;5157395;27;19911;-29
2022/11/09 12:29:48;;;;;;;;;;;;;;;20.25;47.47;97224.38;5157756;27;19914;-29
2022/11/09 12:32:27;;;;;;;;;;;;;;;20.27;47.47;97230.19;5157620;27;20006;-29
2022/11/09 12:35:15;;;;;;;;;;;;;;;20.25;47.47;97224.38;5157879;27;19907;-29
2022/11/09 12:37:53;;;;;;;;;;;;;;;20.19;47.63;97217.22;5157623;27;19907;-28
2022/11/09 12:40:30;;;;;;;;;;;;;;;20.14;47.81;97220.66;5157654;27;19912;-29
2022/11/09 12:43:04;;;;;;;;;;;;;;;20.28;47.50;97225.41;5157627;27;19999;-28
2022/11/09 12:45:33;;;;;;;;;;;;;;;20.26;47.73;97217.63;5157321;27;19907;-29
2022/11/09 12:48:03;;;;;;;;;;;;;;;20.23;47.84;97217.81;5157263;27;19918;-28
2022/11/09 12:50:29;;;;;;;;;;;;;;;20.24;47.82;97213.81;5157001;27;19909;-28